Wampoo, Arkansas
Current Conditions -  °F | °C
As of 12:15 PM on Wednesday 28 Jan 2015 (Local Time) from KSGT Reporting Station
Clear Clear  
Wind Chill: 55°   Ceiling: Unl
Heat Index: 55°   Visibility: 10mi
Dew Point: 36°   Wind: 15mph
Humidity: 47%   Direction: 160°SSE
Pressure: 30.23"   Gusts: 18mph
Location:  34.5894°N, 91.9107°W
Report Text: KSGT 281815Z AUTO 16013G16KT 10SM CLR 13/02 A3023 RMK AO1
Loading
Personal Weather Stations






























Interactive Weather Map New forecast layout! Learn more

10-Day Weather Forecast

Advertisements
Track Severe Weather on mobile